createdAt,value
2023-04-09T00:01:14.558Z,90.70
2023-04-09T00:03:42.412Z,90.70
2023-04-09T00:06:12.436Z,91.00
2023-04-09T00:08:40.281Z,91.10
2023-04-09T00:11:08.153Z,91.00
2023-04-09T00:13:39.496Z,91.10
2023-04-09T00:16:09.742Z,91.20
2023-04-09T00:18:37.772Z,90.90
2023-04-09T00:21:07.065Z,90.80
2023-04-09T00:23:35.488Z,90.80
2023-04-09T00:26:03.403Z,91.20
2023-04-09T00:28:31.381Z,91.40
2023-04-09T00:30:59.206Z,91.50
2023-04-09T00:33:28.414Z,91.50
2023-04-09T00:35:56.298Z,91.40
2023-04-09T00:38:24.296Z,91.20
2023-04-09T00:40:52.737Z,91.30
2023-04-09T00:43:20.662Z,91.30
2023-04-09T00:45:48.974Z,91.50
2023-04-09T00:48:18.140Z,92.40
2023-04-09T00:50:47.365Z,92.60
2023-04-09T00:53:16.836Z,92.80
2023-04-09T00:55:45.774Z,93.00
2023-04-09T00:58:14.522Z,93.00
2023-04-09T01:00:42.434Z,93.30
2023-04-09T01:03:10.465Z,93.70
2023-04-09T01:05:52.251Z,93.70
2023-04-09T01:08:39.850Z,93.80
2023-04-09T01:11:13.771Z,93.70
2023-04-09T01:13:49.078Z,93.70
2023-04-09T01:16:19.664Z,93.90
2023-04-09T01:18:53.720Z,93.90
2023-04-09T01:21:26.279Z,93.80
2023-04-09T01:24:03.748Z,93.80
2023-04-09T01:26:46.597Z,94.20
2023-04-09T01:29:19.171Z,94.00
2023-04-09T01:31:47.855Z,94.20
2023-04-09T01:34:17.319Z,94.00
2023-04-09T01:36:49.993Z,93.90
2023-04-09T01:39:18.325Z,94.00
2023-04-09T01:41:47.159Z,94.20
2023-04-09T01:44:17.766Z,94.20
2023-04-09T01:46:47.676Z,94.70
2023-04-09T01:49:16.281Z,94.60
2023-04-09T01:51:44.942Z,94.60
2023-04-09T01:54:12.775Z,94.30
2023-04-09T01:56:44.741Z,94.20
2023-04-09T01:59:13.202Z,94.50
2023-04-09T02:01:47.121Z,94.50
2023-04-09T02:04:21.024Z,94.70
2023-04-09T02:06:56.266Z,94.80
2023-04-09T02:09:25.994Z,94.80
2023-04-09T02:11:56.056Z,95.00
2023-04-09T02:14:26.624Z,95.20
2023-04-09T02:16:56.489Z,95.00
2023-04-09T02:19:24.303Z,95.20
2023-04-09T02:21:52.359Z,95.20
2023-04-09T02:24:20.205Z,95.00
2023-04-09T02:26:48.084Z,95.10
2023-04-09T02:29:15.938Z,95.10
2023-04-09T02:31:45.195Z,95.30
2023-04-09T02:34:14.404Z,95.30
2023-04-09T02:36:42.274Z,95.20
2023-04-09T02:39:10.202Z,95.00
2023-04-09T02:41:38.036Z,94.90
2023-04-09T02:44:06.009Z,94.80
2023-04-09T02:46:34.133Z,94.80
2023-04-09T02:49:01.925Z,94.90
2023-04-09T02:51:31.452Z,95.00
2023-04-09T02:53:59.276Z,95.10
2023-04-09T02:56:27.113Z,95.20
2023-04-09T02:58:55.343Z,95.30
2023-04-09T03:01:23.227Z,95.30
2023-04-09T03:03:51.510Z,95.20
2023-04-09T03:06:19.519Z,95.20
2023-04-09T03:08:48.848Z,95.30
2023-04-09T03:11:16.924Z,95.50
2023-04-09T03:13:44.739Z,95.30
2023-04-09T03:16:12.659Z,95.70
2023-04-09T03:18:40.551Z,95.30
2023-04-09T03:21:09.812Z,95.40
2023-04-09T03:23:37.656Z,95.30
2023-04-09T03:26:07.239Z,95.20
2023-04-09T03:28:35.097Z,95.20
2023-04-09T03:31:02.975Z,95.10
2023-04-09T03:33:30.813Z,95.00
2023-04-09T03:35:58.750Z,95.10
2023-04-09T03:38:26.616Z,95.30
2023-04-09T03:40:54.461Z,95.50
2023-04-09T03:43:23.702Z,95.50
2023-04-09T03:45:51.538Z,95.70
2023-04-09T03:48:19.387Z,96.00
2023-04-09T03:50:47.228Z,96.00
2023-04-09T03:53:15.069Z,96.00
2023-04-09T03:55:42.895Z,96.00
2023-04-09T03:58:10.735Z,96.00
2023-04-09T04:00:39.950Z,95.90
2023-04-09T04:03:08.064Z,96.00
2023-04-09T04:05:36.138Z,96.00
2023-04-09T04:08:03.970Z,96.00
2023-04-09T04:10:31.841Z,96.20
2023-04-09T04:12:59.729Z,96.10
2023-04-09T04:15:27.559Z,96.00
2023-04-09T04:17:56.854Z,96.00
2023-04-09T04:20:24.771Z,96.00
2023-04-09T04:22:52.636Z,95.80
2023-04-09T04:25:20.487Z,95.70
2023-04-09T04:27:48.318Z,95.70
2023-04-09T04:30:16.232Z,95.70
2023-04-09T04:32:44.138Z,95.80
2023-04-09T04:35:13.349Z,95.60
2023-04-09T04:37:41.442Z,95.60
2023-04-09T04:40:10.539Z,95.60
2023-04-09T04:42:38.420Z,95.60
2023-04-09T04:45:07.211Z,95.30
2023-04-09T04:47:35.112Z,95.30
2023-04-09T04:50:03.310Z,95.20
2023-04-09T04:52:32.622Z,95.20
2023-04-09T04:55:00.517Z,95.10
2023-04-09T04:57:28.388Z,95.20
2023-04-09T04:59:56.222Z,95.60
2023-04-09T05:02:24.265Z,95.40
2023-04-09T05:04:52.296Z,95.50
2023-04-09T05:07:20.194Z,95.40
2023-04-09T05:09:49.433Z,95.20
2023-04-09T05:12:18.068Z,95.00
2023-04-09T05:14:46.177Z,95.30
2023-04-09T05:17:14.029Z,95.30
2023-04-09T05:19:41.927Z,95.50
2023-04-09T05:22:09.797Z,95.60
2023-04-09T05:24:37.680Z,95.60
2023-04-09T05:27:06.859Z,95.50
2023-04-09T05:29:34.706Z,95.20
2023-04-09T05:32:02.632Z,95.10
2023-04-09T05:34:30.514Z,95.10
2023-04-09T05:36:58.390Z,95.00
2023-04-09T05:39:26.328Z,94.80
2023-04-09T05:41:54.213Z,94.00
2023-04-09T05:44:23.447Z,93.70
2023-04-09T05:46:51.414Z,93.40
2023-04-09T05:49:19.254Z,93.70
2023-04-09T05:51:47.134Z,93.30
2023-04-09T05:54:14.968Z,93.70
2023-04-09T05:56:44.491Z,92.80
2023-04-09T05:59:12.700Z,93.10
2023-04-09T06:01:41.992Z,92.80
2023-04-09T06:04:10.033Z,92.00
2023-04-09T06:06:39.741Z,90.50
2023-04-09T06:09:07.610Z,87.40
2023-04-09T06:11:35.456Z,79.30
2023-04-09T06:14:03.281Z,77.60
2023-04-09T06:16:31.146Z,74.60
2023-04-09T06:19:00.421Z,70.50
2023-04-09T06:21:28.285Z,68.10
2023-04-09T06:23:56.159Z,66.20
2023-04-09T06:26:23.996Z,66.80
2023-04-09T06:28:52.312Z,62.00
2023-04-09T06:31:20.504Z,64.70
2023-04-09T06:33:48.360Z,64.30
2023-04-09T06:36:17.615Z,66.50
2023-04-09T06:38:45.593Z,68.00
2023-04-09T06:41:14.796Z,72.90
2023-04-09T06:43:42.763Z,74.30
2023-04-09T06:46:10.973Z,75.70
2023-04-09T06:48:39.082Z,78.80
2023-04-09T06:51:08.434Z,76.40
2023-04-09T06:53:38.561Z,77.30
2023-04-09T06:56:07.205Z,76.10
2023-04-09T06:58:35.479Z,73.80
2023-04-09T07:01:03.482Z,73.60
2023-04-09T07:03:31.587Z,75.50
2023-04-09T07:05:59.939Z,75.40
2023-04-09T07:08:28.626Z,72.40
2023-04-09T07:10:57.826Z,64.50
2023-04-09T07:13:25.784Z,60.30
2023-04-09T07:15:53.691Z,58.20
2023-04-09T07:18:21.572Z,54.00
2023-04-09T07:20:49.458Z,52.20
2023-04-09T07:23:17.473Z,52.00
2023-04-09T07:25:45.382Z,53.50
2023-04-09T07:28:14.650Z,52.20
2023-04-09T07:30:42.514Z,51.80
2023-04-09T07:33:10.494Z,49.30
2023-04-09T07:35:38.487Z,48.90
2023-04-09T07:38:06.333Z,47.20
2023-04-09T07:40:36.664Z,49.20
2023-04-09T07:43:05.224Z,49.80
2023-04-09T07:45:34.543Z,47.70
2023-04-09T07:48:02.443Z,46.90
2023-04-09T07:50:30.754Z,48.50
2023-04-09T07:52:58.579Z,45.60
2023-04-09T07:55:26.581Z,46.60
2023-04-09T07:57:54.647Z,41.00
2023-04-09T08:00:22.540Z,42.80
2023-04-09T08:02:52.882Z,43.20
2023-04-09T08:05:21.188Z,41.40
2023-04-09T08:07:49.196Z,40.50
2023-04-09T08:10:17.199Z,38.70
2023-04-09T08:12:45.273Z,38.70
2023-04-09T08:15:13.180Z,37.90
2023-04-09T08:17:41.091Z,37.50
2023-04-09T08:20:11.801Z,38.90
2023-04-09T08:22:41.088Z,40.40
2023-04-09T08:25:09.649Z,36.10
2023-04-09T08:27:37.542Z,35.90
2023-04-09T08:30:06.782Z,38.80
2023-04-09T08:32:35.571Z,38.10
2023-04-09T08:35:03.467Z,40.50
2023-04-09T08:37:32.675Z,42.30
2023-04-09T08:40:00.650Z,41.70
2023-04-09T08:42:29.998Z,41.40
2023-04-09T08:44:57.868Z,42.50
2023-04-09T08:47:27.381Z,39.40
2023-04-09T08:49:55.481Z,38.00
2023-04-09T08:52:34.572Z,39.60
2023-04-09T08:55:02.653Z,39.80
2023-04-09T08:57:30.641Z,39.30
2023-04-09T08:59:59.692Z,43.60
2023-04-09T09:02:27.636Z,44.80
2023-04-09T09:05:00.639Z,42.20
2023-04-09T09:07:29.778Z,41.70
2023-04-09T09:10:02.335Z,40.30
2023-04-09T09:12:34.534Z,36.40
2023-04-09T09:15:02.543Z,34.40
2023-04-09T09:17:30.560Z,37.60
2023-04-09T09:19:58.559Z,38.50
2023-04-09T09:22:26.905Z,37.70
2023-04-09T09:24:54.781Z,37.60
2023-04-09T09:27:39.324Z,38.60
2023-04-09T09:30:08.589Z,39.40
2023-04-09T09:32:36.725Z,36.50
2023-04-09T09:35:06.534Z,37.80
2023-04-09T09:37:35.128Z,34.70
2023-04-09T09:40:04.178Z,37.50
2023-04-09T09:42:33.039Z,35.80
2023-04-09T09:45:05.204Z,33.70
2023-04-09T09:47:33.578Z,30.80
2023-04-09T09:50:01.502Z,34.20
2023-04-09T09:52:30.274Z,33.30
2023-04-09T09:55:04.211Z,36.80
2023-04-09T09:57:32.846Z,35.00
2023-04-09T10:00:04.873Z,37.60
2023-04-09T10:02:36.892Z,37.60
2023-04-09T10:05:09.687Z,37.00
2023-04-09T10:07:38.578Z,36.80
2023-04-09T10:10:09.650Z,35.80
2023-04-09T10:12:37.571Z,37.30
2023-04-09T10:15:08.038Z,37.90
2023-04-09T10:17:36.740Z,38.20
2023-04-09T10:20:12.344Z,36.80
2023-04-09T10:22:40.962Z,38.50
2023-04-09T10:25:09.990Z,37.00
2023-04-09T10:27:37.961Z,39.60
2023-04-09T10:30:10.667Z,33.80
2023-04-09T10:32:39.551Z,33.40
2023-04-09T10:35:10.395Z,34.10
2023-04-09T10:37:38.304Z,31.30
2023-04-09T10:40:09.627Z,29.00
2023-04-09T10:42:42.019Z,28.20
2023-04-09T10:45:14.021Z,26.40
2023-04-09T10:47:43.580Z,29.30
2023-04-09T10:50:20.345Z,29.40
2023-04-09T10:52:52.487Z,27.50
2023-04-09T10:55:37.183Z,29.00
2023-04-09T10:58:06.354Z,29.40
2023-04-09T11:00:39.360Z,28.90
2023-04-09T11:03:30.452Z,29.50
2023-04-09T11:06:05.890Z,30.60
2023-04-09T11:08:34.944Z,32.00
2023-04-09T11:11:03.607Z,28.90
2023-04-09T11:13:32.845Z,29.50
2023-04-09T11:16:04.239Z,29.40
2023-04-09T11:18:34.525Z,32.40
2023-04-09T11:21:04.146Z,31.00
2023-04-09T11:23:32.989Z,32.10
2023-04-09T11:26:01.805Z,30.00
2023-04-09T11:28:29.743Z,30.40
2023-04-09T11:30:57.573Z,29.80
2023-04-09T11:33:33.215Z,31.10
2023-04-09T11:36:01.726Z,31.20
2023-04-09T11:38:32.683Z,30.80
2023-04-09T11:41:01.301Z,31.20
2023-04-09T11:43:29.151Z,29.10
2023-04-09T11:45:57.640Z,28.50
2023-04-09T11:48:27.127Z,32.40
2023-04-09T11:50:55.211Z,30.00
2023-04-09T11:53:24.583Z,31.20
2023-04-09T11:55:53.928Z,30.60
2023-04-09T11:58:24.516Z,32.70
2023-04-09T12:00:54.729Z,31.20
2023-04-09T12:03:30.689Z,28.30
2023-04-09T12:06:01.757Z,34.70
2023-04-09T12:08:29.702Z,33.20
2023-04-09T12:10:57.623Z,29.50
2023-04-09T12:13:34.291Z,28.90
2023-04-09T12:16:02.582Z,27.00
2023-04-09T12:18:31.826Z,31.60
2023-04-09T12:21:01.344Z,30.20
2023-04-09T12:23:31.420Z,30.00
2023-04-09T12:26:01.230Z,29.50
2023-04-09T12:28:29.666Z,30.10
2023-04-09T12:30:59.379Z,28.80
2023-04-09T12:33:27.341Z,28.70
2023-04-09T12:35:58.258Z,29.20
2023-04-09T12:38:26.750Z,29.70
2023-04-09T12:40:54.639Z,29.80
2023-04-09T12:43:22.557Z,29.90
2023-04-09T12:45:50.427Z,30.80
2023-04-09T12:48:18.400Z,32.60
2023-04-09T12:50:46.370Z,32.60
2023-04-09T12:53:15.585Z,33.50
2023-04-09T12:55:43.432Z,32.40
2023-04-09T12:58:11.282Z,32.00
2023-04-09T13:00:39.254Z,32.60
2023-04-09T13:03:07.411Z,31.60
2023-04-09T13:05:36.165Z,30.50
2023-04-09T13:08:04.344Z,30.00
2023-04-09T13:10:34.809Z,30.70
2023-04-09T13:13:02.750Z,28.90
2023-04-09T13:15:31.526Z,29.40
2023-04-09T13:17:59.434Z,29.40
2023-04-09T13:20:27.512Z,29.60
2023-04-09T13:22:55.382Z,28.90
2023-04-09T13:25:23.524Z,28.40
2023-04-09T13:27:52.710Z,26.90
2023-04-09T13:30:21.241Z,26.10
2023-04-09T13:32:49.177Z,27.40
2023-04-09T13:35:17.192Z,26.00
2023-04-09T13:37:45.042Z,26.00
2023-04-09T13:40:13.549Z,26.20
2023-04-09T13:42:41.502Z,25.90
2023-04-09T13:45:11.260Z,25.90
2023-04-09T13:47:39.138Z,26.70
2023-04-09T13:50:10.156Z,28.00
2023-04-09T13:52:38.027Z,26.00
2023-04-09T13:55:07.558Z,26.70
2023-04-09T13:57:35.674Z,27.00
2023-04-09T14:00:05.046Z,27.40
2023-04-09T14:02:34.697Z,28.40
2023-04-09T14:05:03.634Z,26.20
2023-04-09T14:07:32.161Z,27.00
2023-04-09T14:10:00.129Z,24.30
2023-04-09T14:12:28.083Z,29.00
2023-04-09T14:14:55.946Z,26.00
2023-04-09T14:17:24.014Z,26.40
2023-04-09T14:19:53.333Z,27.30
2023-04-09T14:22:21.170Z,29.00
2023-04-09T14:24:49.051Z,29.80
2023-04-09T14:27:16.919Z,28.40
2023-04-09T14:29:44.852Z,26.90
2023-04-09T14:32:12.714Z,27.00
2023-04-09T14:34:40.632Z,27.80
2023-04-09T14:37:09.928Z,25.90
2023-04-09T14:39:37.859Z,27.10
2023-04-09T14:42:05.763Z,27.10
2023-04-09T14:44:34.397Z,27.70
2023-04-09T14:47:02.767Z,26.00
2023-04-09T14:49:30.614Z,26.60
2023-04-09T14:51:59.489Z,25.10
2023-04-09T14:54:30.319Z,24.70
2023-04-09T14:56:58.266Z,26.80
2023-04-09T14:59:26.887Z,27.50
2023-04-09T15:01:54.845Z,28.30
2023-04-09T15:04:23.550Z,27.20
2023-04-09T15:06:51.507Z,27.20
2023-04-09T15:09:19.365Z,27.10
2023-04-09T15:11:48.594Z,25.80
2023-04-09T15:14:16.447Z,27.50
2023-04-09T15:16:44.405Z,26.00
2023-04-09T15:19:12.410Z,25.80
2023-04-09T15:21:40.286Z,25.80
2023-04-09T15:24:08.164Z,25.80
2023-04-09T15:26:36.052Z,26.70
2023-04-09T15:29:08.789Z,25.60
2023-04-09T15:31:38.041Z,26.30
2023-04-09T15:34:06.979Z,26.40
2023-04-09T15:36:34.969Z,26.90
2023-04-09T15:39:04.687Z,26.40
2023-04-09T15:41:33.739Z,26.70
2023-04-09T15:44:01.625Z,28.10
2023-04-09T15:46:30.919Z,28.60
2023-04-09T15:48:58.759Z,29.60
2023-04-09T15:51:27.083Z,29.60
2023-04-09T15:53:54.951Z,28.90
2023-04-09T15:56:22.844Z,29.10
2023-04-09T15:58:50.791Z,30.20
2023-04-09T16:01:19.456Z,28.90
2023-04-09T16:03:52.025Z,31.80
2023-04-09T16:06:20.124Z,30.70
2023-04-09T16:08:48.038Z,31.70
2023-04-09T16:11:17.194Z,28.90
2023-04-09T16:13:45.136Z,28.70
2023-04-09T16:16:13.263Z,27.30
2023-04-09T16:18:41.187Z,29.60
2023-04-09T16:21:10.588Z,28.70
2023-04-09T16:23:38.501Z,31.10
2023-04-09T16:26:06.933Z,27.00
2023-04-09T16:28:34.886Z,29.90
2023-04-09T16:31:03.202Z,31.60
2023-04-09T16:33:31.238Z,29.30
2023-04-09T16:35:59.536Z,28.80
2023-04-09T16:38:29.240Z,27.60
2023-04-09T16:40:57.358Z,31.30
2023-04-09T16:43:26.229Z,28.30
2023-04-09T16:45:54.190Z,28.40
2023-04-09T16:48:22.086Z,28.20
2023-04-09T16:50:49.904Z,28.30
2023-04-09T16:53:17.772Z,29.70
2023-04-09T16:55:46.942Z,28.20
2023-04-09T16:58:14.811Z,29.00
2023-04-09T17:00:44.117Z,29.80
2023-04-09T17:03:13.393Z,29.60
2023-04-09T17:05:41.375Z,32.00
2023-04-09T17:08:09.226Z,31.30
2023-04-09T17:10:37.941Z,31.40
2023-04-09T17:13:07.146Z,32.00
2023-04-09T17:15:35.051Z,30.70
2023-04-09T17:18:04.189Z,31.60
2023-04-09T17:20:32.705Z,31.00
2023-04-09T17:23:00.792Z,32.30
2023-04-09T17:25:28.693Z,34.40
2023-04-09T17:27:56.648Z,29.00
2023-04-09T17:30:25.830Z,28.60
2023-04-09T17:32:53.771Z,30.90
2023-04-09T17:35:21.749Z,28.20
2023-04-09T17:37:49.813Z,27.70
2023-04-09T17:40:18.723Z,29.50
2023-04-09T17:42:46.714Z,28.90
2023-04-09T17:45:14.576Z,29.50
2023-04-09T17:47:43.847Z,31.20
2023-04-09T17:50:12.341Z,35.80
2023-04-09T17:52:40.720Z,36.80
2023-04-09T17:55:09.118Z,39.00
2023-04-09T17:57:36.985Z,38.90
2023-04-09T18:00:05.600Z,39.10
2023-04-09T18:02:34.628Z,39.90
2023-04-09T18:05:05.520Z,41.00
2023-04-09T18:07:34.370Z,41.30
2023-04-09T18:10:02.674Z,41.20
2023-04-09T18:12:30.827Z,42.00
2023-04-09T18:14:58.697Z,43.00
2023-04-09T18:17:27.216Z,43.30
2023-04-09T18:19:58.126Z,43.10
2023-04-09T18:22:27.880Z,42.50
2023-04-09T18:24:56.485Z,43.00
2023-04-09T18:27:24.447Z,43.50
2023-04-09T18:29:52.357Z,43.80
2023-04-09T18:32:20.350Z,44.20
2023-04-09T18:34:48.474Z,44.60
2023-04-09T18:37:16.624Z,46.20
2023-04-09T18:39:46.234Z,47.20
2023-04-09T18:42:14.571Z,48.40
2023-04-09T18:44:42.594Z,49.80
2023-04-09T18:47:11.939Z,49.10
2023-04-09T18:49:39.811Z,48.70
2023-04-09T18:52:09.133Z,49.10
2023-04-09T18:54:38.664Z,50.00
2023-04-09T18:57:08.698Z,50.40
2023-04-09T18:59:36.560Z,49.70
2023-04-09T19:02:04.760Z,50.80
2023-04-09T19:04:36.269Z,57.60
2023-04-09T19:07:04.386Z,61.00
2023-04-09T19:09:32.926Z,60.00
2023-04-09T19:12:01.881Z,63.70
2023-04-09T19:14:31.311Z,67.30
2023-04-09T19:16:59.632Z,69.60
2023-04-09T19:19:28.935Z,69.60
2023-04-09T19:21:57.242Z,71.40
2023-04-09T19:24:25.367Z,71.50
2023-04-09T19:26:53.495Z,70.60
2023-04-09T19:29:21.594Z,68.50
2023-04-09T19:31:51.118Z,65.20
2023-04-09T19:34:19.113Z,63.60
2023-04-09T19:36:46.955Z,63.70
2023-04-09T19:39:15.500Z,63.20
2023-04-09T19:41:43.375Z,63.30
2023-04-09T19:44:11.375Z,62.70
2023-04-09T19:46:39.387Z,68.20
2023-04-09T19:49:08.646Z,68.70
2023-04-09T19:51:36.534Z,67.60
2023-04-09T19:54:04.592Z,68.00
2023-04-09T19:56:32.915Z,66.40
2023-04-09T19:59:00.823Z,65.80
2023-04-09T20:01:28.946Z,64.10
2023-04-09T20:03:57.501Z,63.50
2023-04-09T20:06:27.139Z,63.40
2023-04-09T20:08:55.905Z,63.10
2023-04-09T20:11:23.845Z,62.90
2023-04-09T20:13:51.951Z,63.50
2023-04-09T20:16:19.995Z,63.70
2023-04-09T20:18:48.060Z,63.90
2023-04-09T20:21:15.975Z,63.80
2023-04-09T20:23:45.823Z,65.40
2023-04-09T20:26:13.776Z,67.40
2023-04-09T20:28:41.806Z,69.00
2023-04-09T20:31:09.693Z,71.80
2023-04-09T20:33:37.559Z,75.20
2023-04-09T20:36:14.065Z,75.90
2023-04-09T20:38:42.013Z,77.20
2023-04-09T20:41:11.579Z,77.40
2023-04-09T20:43:39.476Z,76.50
2023-04-09T20:46:07.382Z,75.80
2023-04-09T20:48:35.373Z,75.80
2023-04-09T20:51:04.890Z,76.40
2023-04-09T20:53:32.980Z,78.60
2023-04-09T20:56:02.029Z,77.10
2023-04-09T20:58:31.505Z,76.60
2023-04-09T21:01:04.953Z,76.20
2023-04-09T21:03:33.093Z,76.30
2023-04-09T21:06:01.220Z,76.00
2023-04-09T21:08:29.166Z,75.50
2023-04-09T21:10:57.294Z,77.40
2023-04-09T21:13:26.697Z,78.60
2023-04-09T21:15:56.097Z,79.80
2023-04-09T21:18:24.352Z,81.20
2023-04-09T21:20:52.343Z,81.20
2023-04-09T21:23:20.329Z,82.40
2023-04-09T21:25:48.183Z,81.70
2023-04-09T21:28:16.145Z,81.30
2023-04-09T21:30:44.040Z,80.90
2023-04-09T21:33:13.294Z,79.50
2023-04-09T21:35:41.334Z,80.60
2023-04-09T21:38:09.224Z,80.60
2023-04-09T21:40:37.206Z,79.10
2023-04-09T21:43:05.048Z,78.00
2023-04-09T21:45:32.921Z,77.70
2023-04-09T21:48:01.511Z,78.40
2023-04-09T21:50:32.097Z,79.60
2023-04-09T21:52:59.999Z,78.00
2023-04-09T21:55:27.867Z,78.40
2023-04-09T21:57:56.172Z,78.80
2023-04-09T22:00:24.231Z,78.50
2023-04-09T22:02:52.218Z,79.30
2023-04-09T22:05:20.464Z,79.90
2023-04-09T22:07:49.653Z,82.00
2023-04-09T22:10:17.534Z,83.10
2023-04-09T22:12:45.540Z,83.40
2023-04-09T22:15:13.545Z,83.70
2023-04-09T22:17:41.573Z,84.50
2023-04-09T22:20:10.280Z,84.80
2023-04-09T22:22:38.721Z,85.70
2023-04-09T22:25:08.970Z,86.40
2023-04-09T22:27:36.815Z,85.60
2023-04-09T22:30:04.918Z,86.70
2023-04-09T22:32:33.356Z,86.40
2023-04-09T22:35:01.447Z,86.10
2023-04-09T22:37:29.318Z,85.60
2023-04-09T22:39:57.184Z,84.90
2023-04-09T22:42:27.298Z,85.20
2023-04-09T22:44:55.263Z,85.80
2023-04-09T22:47:23.158Z,86.70
2023-04-09T22:49:54.803Z,85.90
2023-04-09T22:52:22.740Z,86.90
2023-04-09T22:54:50.655Z,86.30
2023-04-09T22:57:18.549Z,86.40
2023-04-09T22:59:47.805Z,85.90
2023-04-09T23:02:15.879Z,85.60
2023-04-09T23:04:43.925Z,86.20
2023-04-09T23:07:11.782Z,85.60
2023-04-09T23:09:39.660Z,85.80
2023-04-09T23:12:07.614Z,85.00
2023-04-09T23:14:35.589Z,85.10
2023-04-09T23:17:04.801Z,85.60
2023-04-09T23:19:32.688Z,85.80
2023-04-09T23:22:00.847Z,86.00
2023-04-09T23:24:28.688Z,87.50
2023-04-09T23:26:56.936Z,86.40
2023-04-09T23:29:24.839Z,86.80
2023-04-09T23:31:52.845Z,87.00
2023-04-09T23:34:22.184Z,87.40
2023-04-09T23:36:50.074Z,88.80
2023-04-09T23:39:17.936Z,88.20
2023-04-09T23:41:45.825Z,87.90
2023-04-09T23:44:13.707Z,88.70
2023-04-09T23:46:41.672Z,88.30
2023-04-09T23:49:09.594Z,88.30
2023-04-09T23:51:38.784Z,88.10
2023-04-09T23:54:06.841Z,86.70
2023-04-09T23:56:34.718Z,86.30
2023-04-09T23:59:02.668Z,85.70
